Time;durP1;ratioP1;P1;durP2;ratioP2;P2;SDS_P1;SDS_P2;PMS_P1;PMS_P2;Temp;Humidity;BMP_temperature;BMP_pressure;BME280_temperature;BME280_humidity;BME280_pressure;Samples;Min_cycle;Max_cycle;Signal;HPM_P1;HPM_P2
2021/12/27 00:00:03;;;;;;;1.52;1.17;;;16.60;47.80;;;;;;5057155;28;20020;-57
2021/12/27 00:02:29;;;;;;;2.08;1.40;;;16.60;47.80;;;;;;5057047;28;20005;-58
2021/12/27 00:04:55;;;;;;;2.15;1.48;;;16.50;47.80;;;;;;5057500;28;20016;-57
2021/12/27 00:07:21;;;;;;;1.42;1.33;;;16.50;47.80;;;;;;5056915;28;20468;-57
2021/12/27 00:09:49;;;;;;;1.88;1.40;;;16.60;47.90;;;;;;5056809;28;20100;-57
2021/12/27 00:12:15;;;;;;;1.50;1.40;;;16.50;47.80;;;;;;5057498;28;20036;-57
2021/12/27 00:14:41;;;;;;;1.65;1.20;;;16.50;47.90;;;;;;5057793;28;20065;-57
2021/12/27 00:17:08;;;;;;;1.30;1.20;;;16.50;47.90;;;;;;5057441;28;20033;-57
2021/12/27 00:19:34;;;;;;;1.52;1.25;;;16.50;47.90;;;;;;5057092;28;20499;-57
2021/12/27 00:22:00;;;;;;;1.60;1.30;;;16.50;47.90;;;;;;5056912;28;20029;-58
2021/12/27 00:24:26;;;;;;;1.95;1.50;;;16.50;47.90;;;;;;5056845;28;20486;-57
2021/12/27 00:26:52;;;;;;;1.80;1.40;;;16.50;47.90;;;;;;5057447;28;20029;-57
2021/12/27 00:29:19;;;;;;;1.77;1.40;;;16.50;47.90;;;;;;5057636;28;20013;-57
2021/12/27 00:31:44;;;;;;;1.13;1.00;;;16.50;47.90;;;;;;5056366;28;20029;-57
2021/12/27 00:34:11;;;;;;;1.40;1.25;;;16.50;47.90;;;;;;5038910;28;20021;-57
2021/12/27 00:36:36;;;;;;;1.75;1.40;;;16.50;47.90;;;;;;5057134;28;20076;-57
2021/12/27 00:39:03;;;;;;;1.83;1.42;;;16.50;47.90;;;;;;5057320;28;20021;-57
2021/12/27 00:41:29;;;;;;;1.45;1.20;;;16.50;47.90;;;;;;5057232;28;20052;-58
2021/12/27 00:43:55;;;;;;;1.55;1.33;;;16.50;47.90;;;;;;5055484;28;20052;-57
2021/12/27 00:46:21;;;;;;;1.45;1.25;;;16.50;47.90;;;;;;5055889;28;20044;-57
2021/12/27 00:48:47;;;;;;;2.05;1.25;;;16.50;48.00;;;;;;5037552;28;20393;-57
2021/12/27 00:51:13;;;;;;;1.40;1.30;;;16.50;48.00;;;;;;5055379;28;20056;-56
2021/12/27 00:53:39;;;;;;;1.40;1.15;;;16.50;48.00;;;;;;5055502;28;20467;-58
2021/12/27 00:56:05;;;;;;;1.30;1.20;;;16.50;48.00;;;;;;5055573;28;20005;-58
2021/12/27 00:58:32;;;;;;;1.90;1.40;;;16.50;48.00;;;;;;5055771;28;20051;-57
2021/12/27 01:00:59;;;;;;;1.52;1.42;;;16.40;48.00;;;;;;5056103;28;20023;-59
2021/12/27 01:03:24;;;;;;;1.92;1.40;;;16.40;48.00;;;;;;5056000;28;20535;-59
2021/12/27 01:05:50;;;;;;;1.63;1.25;;;16.40;48.00;;;;;;5055431;28;20032;-56
2021/12/27 01:08:17;;;;;;;1.60;1.30;;;16.40;48.00;;;;;;5037281;28;20025;-57
2021/12/27 01:11:13;;;;;;;2.15;1.25;;;16.40;48.00;;;;;;5055051;28;20471;-58
2021/12/27 01:13:45;;;;;;;2.10;1.42;;;16.40;48.00;;;;;;5055360;28;20021;-56
2021/12/27 01:16:12;;;;;;;1.95;1.48;;;16.40;48.00;;;;;;5055344;28;20009;-57
2021/12/27 01:18:47;;;;;;;3.70;1.30;;;16.50;48.00;;;;;;5055288;28;20009;-57
2021/12/27 01:21:14;;;;;;;1.27;1.15;;;16.40;48.00;;;;;;5055042;28;20548;-56
2021/12/27 01:23:40;;;;;;;1.40;1.17;;;16.40;48.00;;;;;;5055741;28;20028;-58
2021/12/27 01:26:07;;;;;;;1.40;1.13;;;16.40;48.10;;;;;;5055407;28;20096;-56
2021/12/27 01:28:33;;;;;;;2.15;1.50;;;16.40;48.00;;;;;;5055979;28;20612;-57
2021/12/27 01:30:59;;;;;;;1.50;1.27;;;16.40;48.00;;;;;;5055883;28;20395;-58
2021/12/27 01:33:25;;;;;;;1.40;1.20;;;16.40;48.00;;;;;;5056630;28;20083;-58
2021/12/27 01:35:54;;;;;;;1.70;1.30;;;16.40;48.10;;;;;;5056496;28;20017;-56
2021/12/27 01:38:20;;;;;;;1.60;1.33;;;16.40;48.10;;;;;;5057270;28;20025;-57
2021/12/27 01:40:47;;;;;;;1.50;1.40;;;16.40;48.10;;;;;;5056165;28;20442;-57
2021/12/27 01:43:21;;;;;;;2.33;1.30;;;16.40;48.20;;;;;;5054969;28;20379;-56
2021/12/27 01:45:59;;;;;;;1.85;1.63;;;16.40;48.20;;;;;;5054162;28;20025;-56
2021/12/27 01:48:28;;;;;;;1.63;1.40;;;16.40;48.10;;;;;;5054473;28;20055;-56
2021/12/27 01:50:55;;;;;;;1.70;1.33;;;16.40;48.10;;;;;;5054566;28;20045;-53
2021/12/27 01:53:22;;;;;;;1.30;1.20;;;16.40;48.10;;;;;;5053981;28;20048;-54
2021/12/27 01:55:49;;;;;;;1.40;1.27;;;16.40;48.10;;;;;;5054509;28;20020;-55
2021/12/27 01:58:15;;;;;;;1.38;1.20;;;16.40;48.10;;;;;;5054799;28;20086;-55
2021/12/27 02:00:47;;;;;;;1.23;1.10;;;16.40;48.20;;;;;;5055107;28;20092;-56
2021/12/27 02:03:16;;;;;;;1.20;1.00;;;16.40;48.20;;;;;;5036776;28;20506;-55
2021/12/27 02:05:42;;;;;;;1.40;1.30;;;16.40;48.20;;;;;;5054887;28;20037;-54
2021/12/27 02:08:08;;;;;;;1.33;1.20;;;16.40;48.20;;;;;;5054518;28;20033;-55
2021/12/27 02:10:34;;;;;;;1.70;1.20;;;16.40;48.20;;;;;;5053550;28;20463;-56
2021/12/27 02:13:00;;;;;;;1.30;1.20;;;16.30;48.20;;;;;;5053809;28;20032;-55
2021/12/27 02:15:26;;;;;;;1.45;1.23;;;16.40;48.20;;;;;;5053888;28;20014;-55
2021/12/27 02:17:52;;;;;;;1.75;1.40;;;16.30;48.20;;;;;;5053934;28;20528;-55
2021/12/27 02:20:28;;;;;;;1.02;0.93;;;16.30;48.20;;;;;;5053522;28;20025;-56
2021/12/27 02:22:59;;;;;;;1.50;1.30;;;16.40;48.30;;;;;;5054068;28;20017;-56
2021/12/27 02:25:25;;;;;;;;;;;16.40;48.20;;;;;;5054405;28;20013;-57
2021/12/27 02:27:51;;;;;;;1.10;1.00;;;16.40;48.20;;;;;;5054010;28;19901;-54
2021/12/27 02:30:17;;;;;;;1.38;1.13;;;16.30;48.20;;;;;;5053814;28;20086;-55
2021/12/27 02:32:57;;;;;;;2.90;1.35;;;16.30;48.30;;;;;;5053860;28;20424;-55
2021/12/27 02:35:26;;;;;;;1.08;0.90;;;16.30;48.20;;;;;;5053817;28;20032;-55
2021/12/27 02:37:52;;;;;;;3.58;1.40;;;16.30;48.20;;;;;;5032341;28;20484;-55
2021/12/27 02:40:21;;;;;;;1.58;1.45;;;16.30;48.20;;;;;;5032696;28;20017;-57
2021/12/27 02:43:03;;;;;;;1.75;1.25;;;16.30;48.30;;;;;;5033514;28;20017;-55
2021/12/27 02:45:29;;;;;;;1.90;1.30;;;16.30;48.30;;;;;;5033533;28;20111;-55
2021/12/27 02:47:55;;;;;;;1.55;1.23;;;16.30;48.30;;;;;;5033073;28;20053;-56
2021/12/27 02:50:22;;;;;;;1.52;1.17;;;16.30;48.30;;;;;;5033439;28;20025;-56
2021/12/27 02:52:49;;;;;;;1.88;1.50;;;16.30;48.30;;;;;;5031922;28;20083;-56
2021/12/27 02:55:15;;;;;;;1.75;1.33;;;16.30;48.30;;;;;;5033292;28;20020;-56
2021/12/27 02:57:46;;;;;;;1.30;1.17;;;16.30;48.30;;;;;;5037868;28;20017;-56
2021/12/27 03:00:25;;;;;;;1.30;1.20;;;16.30;48.30;;;;;;5038483;28;20037;-56
2021/12/27 03:02:51;;;;;;;1.33;1.10;;;16.30;48.30;;;;;;5038206;28;20029;-56
2021/12/27 03:05:18;;;;;;;1.33;1.20;;;16.30;48.40;;;;;;5037548;28;20088;-56
2021/12/27 03:07:45;;;;;;;1.58;1.20;;;16.30;48.30;;;;;;5037895;28;20067;-55
2021/12/27 03:10:12;;;;;;;1.65;1.20;;;16.30;48.30;;;;;;5037846;28;20029;-55
2021/12/27 03:12:38;;;;;;;1.30;1.20;;;16.30;48.30;;;;;;5037776;28;20025;-53
2021/12/27 03:15:08;;;;;;;1.40;1.30;;;16.30;48.40;;;;;;5020154;28;20494;-55
2021/12/27 03:17:34;;;;;;;1.60;1.20;;;16.20;48.40;;;;;;5037215;28;20013;-56
2021/12/27 03:20:00;;;;;;;1.10;1.00;;;16.20;48.40;;;;;;5037020;28;20010;-55
2021/12/27 03:22:26;;;;;;;1.80;1.13;;;16.20;48.40;;;;;;5037215;28;20036;-55
2021/12/27 03:24:52;;;;;;;1.58;1.25;;;16.20;48.40;;;;;;5035527;28;20030;-55
2021/12/27 03:27:18;;;;;;;2.08;1.30;;;16.20;48.40;;;;;;5038486;28;20049;-54
2021/12/27 03:29:45;;;;;;;2.38;1.45;;;16.20;48.40;;;;;;5038767;28;20102;-56
2021/12/27 03:32:11;;;;;;;1.52;1.33;;;16.30;48.50;;;;;;5038529;28;20056;-57
2021/12/27 03:34:42;;;;;;;1.30;1.10;;;16.20;48.40;;;;;;5038459;28;20443;-56
2021/12/27 03:37:09;;;;;;;1.42;1.17;;;16.20;48.40;;;;;;5050463;28;20116;-56
2021/12/27 03:39:35;;;;;;;1.60;1.00;;;16.20;48.40;;;;;;5058043;28;20062;-55
2021/12/27 03:42:02;;;;;;;1.23;1.10;;;16.30;48.40;;;;;;5056986;28;20021;-56
2021/12/27 03:44:28;;;;;;;1.48;1.25;;;16.20;48.40;;;;;;5056605;28;20024;-55
2021/12/27 03:46:54;;;;;;;1.52;1.13;;;16.20;48.40;;;;;;5056268;28;20013;-55
2021/12/27 03:49:21;;;;;;;1.27;1.02;;;16.20;48.40;;;;;;5056393;28;20091;-56
2021/12/27 03:51:48;;;;;;;2.20;1.10;;;16.30;48.50;;;;;;5056253;28;20112;-54
2021/12/27 03:54:14;;;;;;;1.65;1.25;;;16.20;48.40;;;;;;5037976;28;20009;-55
2021/12/27 03:56:41;;;;;;;1.50;1.40;;;16.20;48.50;;;;;;5055850;28;20021;-55
2021/12/27 03:59:21;;;;;;;1.30;1.20;;;16.20;48.40;;;;;;5056043;28;20424;-55
2021/12/27 04:01:47;;;;;;;1.40;1.30;;;16.20;48.40;;;;;;5056152;28;20021;-56
2021/12/27 04:04:13;;;;;;;1.55;1.27;;;16.20;49.00;;;;;;5055993;28;20021;-57
2021/12/27 04:06:40;;;;;;;1.25;1.15;;;16.20;48.40;;;;;;5055370;28;20514;-56
2021/12/27 04:09:07;;;;;;;1.50;1.25;;;16.20;48.40;;;;;;5055590;28;20387;-56
2021/12/27 04:11:33;;;;;;;2.25;1.13;;;16.20;48.50;;;;;;5055496;28;20533;-57
2021/12/27 04:13:59;;;;;;;1.33;1.10;;;16.20;48.50;;;;;;5038134;28;20014;-56
2021/12/27 04:16:26;;;;;;;1.55;1.38;;;16.20;48.50;;;;;;5055338;28;20032;-56
2021/12/27 04:18:53;;;;;;;1.15;1.05;;;16.20;48.50;;;;;;5055522;28;20021;-57
2021/12/27 04:21:18;;;;;;;1.40;1.30;;;16.20;48.70;;;;;;5037774;28;20116;-56
2021/12/27 04:23:44;;;;;;;1.30;1.10;;;16.20;48.50;;;;;;5055857;28;20080;-58
2021/12/27 04:26:10;;;;;;;1.65;1.20;;;16.20;48.50;;;;;;5055774;28;20048;-58
2021/12/27 04:28:36;;;;;;;1.23;1.08;;;16.20;48.60;;;;;;5055492;28;20087;-58
2021/12/27 04:31:02;;;;;;;1.10;1.00;;;16.20;48.60;;;;;;5055112;28;20483;-56
2021/12/27 04:33:28;;;;;;;1.20;1.05;;;16.20;48.60;;;;;;5055067;28;20013;-57
2021/12/27 04:35:54;;;;;;;1.35;1.20;;;16.20;48.50;;;;;;5055587;28;20013;-58
2021/12/27 04:38:19;;;;;;;2.25;1.38;;;16.20;48.60;;;;;;5055209;28;20047;-58
2021/12/27 04:40:46;;;;;;;1.20;1.10;;;16.20;48.60;;;;;;5055157;28;20020;-58
2021/12/27 04:43:14;;;;;;;1.77;1.40;;;16.10;48.50;;;;;;5054945;28;20020;-58
2021/12/27 04:45:40;;;;;;;1.48;1.20;;;16.20;48.60;;;;;;5055225;28;20025;-58
2021/12/27 04:48:06;;;;;;;1.25;1.15;;;16.20;48.60;;;;;;5020731;28;20025;-58
2021/12/27 04:50:32;;;;;;;1.73;1.27;;;16.20;48.60;;;;;;5037077;28;20365;-58
2021/12/27 04:52:58;;;;;;;1.30;1.20;;;16.20;48.60;;;;;;5054804;28;20718;-58
2021/12/27 04:55:24;;;;;;;1.42;1.20;;;16.20;48.60;;;;;;5055230;28;20018;-58
2021/12/27 04:57:51;;;;;;;1.10;0.90;;;16.10;48.60;;;;;;5055270;28;20017;-57
2021/12/27 05:00:18;;;;;;;1.48;1.20;;;16.20;48.60;;;;;;5055123;28;20041;-58
2021/12/27 05:02:44;;;;;;;1.58;1.25;;;16.20;48.60;;;;;;5054795;28;20031;-58
2021/12/27 05:05:09;;;;;;;2.13;1.30;;;16.20;48.60;;;;;;5054842;28;20017;-58
2021/12/27 05:07:36;;;;;;;1.20;1.10;;;16.10;48.50;;;;;;5055184;28;20045;-58
2021/12/27 05:10:05;;;;;;;1.30;1.10;;;16.20;48.60;;;;;;5055768;28;20005;-58
2021/12/27 05:12:31;;;;;;;1.38;1.20;;;16.10;48.60;;;;;;5054349;28;20024;-57
2021/12/27 05:14:57;;;;;;;1.42;1.13;;;16.10;48.60;;;;;;5054862;28;20092;-58
2021/12/27 05:17:23;;;;;;;1.23;1.13;;;16.10;48.70;;;;;;5054261;28;20037;-58
2021/12/27 05:19:49;;;;;;;1.70;1.35;;;16.10;48.70;;;;;;5053620;28;20017;-59
2021/12/27 05:22:15;;;;;;;1.45;1.35;;;16.10;48.70;;;;;;5054212;28;20058;-57
2021/12/27 05:24:40;;;;;;;2.08;1.40;;;16.10;48.60;;;;;;5054517;28;20116;-59
2021/12/27 05:27:08;;;;;;;1.70;1.35;;;16.10;48.60;;;;;;5054218;28;20495;-59
2021/12/27 05:29:34;;;;;;;1.45;1.20;;;16.10;48.70;;;;;;5053931;28;20021;-59
2021/12/27 05:32:02;;;;;;;1.45;1.23;;;16.10;48.60;;;;;;5054282;28;20032;-59
2021/12/27 05:34:29;;;;;;;2.13;1.40;;;16.10;48.60;;;;;;5054188;28;20009;-59
2021/12/27 05:36:55;;;;;;;1.80;1.05;;;16.10;48.60;;;;;;5053869;28;20048;-58
2021/12/27 05:39:22;;;;;;;1.65;1.35;;;16.10;48.60;;;;;;5054237;28;20021;-58
2021/12/27 05:41:48;;;;;;;1.42;1.20;;;16.10;49.20;;;;;;5036658;28;20036;-58
2021/12/27 05:44:14;;;;;;;1.35;1.20;;;16.10;48.70;;;;;;5054285;28;20025;-59
2021/12/27 05:46:40;;;;;;;2.10;1.25;;;16.10;48.70;;;;;;5053578;28;20021;-58
2021/12/27 05:49:06;;;;;;;2.03;1.17;;;16.10;48.60;;;;;;5053625;28;20060;-59
2021/12/27 05:51:31;;;;;;;1.25;1.15;;;16.10;48.60;;;;;;5054264;28;20055;-59
2021/12/27 05:53:57;;;;;;;1.45;1.35;;;16.10;48.60;;;;;;5036035;28;20454;-59
2021/12/27 05:56:24;;;;;;;2.13;1.20;;;16.10;48.50;;;;;;5054028;28;20044;-58
2021/12/27 05:58:50;;;;;;;1.42;1.13;;;16.10;48.60;;;;;;5054434;28;20049;-59
2021/12/27 06:01:17;;;;;;;1.13;1.05;;;16.10;48.50;;;;;;5054460;28;20017;-59
2021/12/27 06:03:42;;;;;;;1.88;1.20;;;16.20;48.30;;;;;;5053414;28;20013;-58
2021/12/27 06:06:09;;;;;;;1.40;1.13;;;16.30;48.20;;;;;;5053542;28;20032;-58
2021/12/27 06:08:35;;;;;;;1.55;1.17;;;16.40;48.10;;;;;;5053696;28;20028;-59
2021/12/27 06:11:01;;;;;;;1.55;1.02;;;16.40;48.00;;;;;;5053386;28;20029;-59
2021/12/27 06:13:29;;;;;;;1.50;1.23;;;16.40;47.90;;;;;;5053623;28;20041;-58
2021/12/27 06:15:55;;;;;;;1.58;1.20;;;16.50;47.80;;;;;;5053604;28;20024;-59
2021/12/27 06:18:21;;;;;;;1.15;1.05;;;16.60;47.60;;;;;;5053310;28;20071;-59
2021/12/27 06:20:48;;;;;;;1.38;1.13;;;16.70;47.50;;;;;;5053583;28;20028;-59
2021/12/27 06:23:15;;;;;;;1.35;1.20;;;16.70;47.30;;;;;;5053355;28;20099;-59
2021/12/27 06:25:43;;;;;;;1.40;1.23;;;16.80;47.20;;;;;;5053230;28;20098;-58
2021/12/27 06:28:10;;;;;;;1.55;1.10;;;16.80;47.10;;;;;;5054205;28;20111;-58
2021/12/27 06:30:35;;;;;;;1.42;1.30;;;16.90;47.10;;;;;;5052356;28;20017;-58
2021/12/27 06:33:01;;;;;;;1.20;1.05;;;16.90;46.90;;;;;;5053437;28;20024;-58
2021/12/27 06:35:28;;;;;;;1.63;1.17;;;17.00;46.80;;;;;;5053737;28;20025;-58
2021/12/27 06:37:53;;;;;;;1.65;1.30;;;17.00;46.70;;;;;;5053671;28;20529;-59
2021/12/27 06:40:20;;;;;;;1.40;1.20;;;17.00;46.60;;;;;;5053912;28;20029;-60
2021/12/27 06:42:46;;;;;;;1.33;1.02;;;17.10;46.60;;;;;;5052976;28;20020;-60
2021/12/27 06:45:12;;;;;;;1.40;1.02;;;17.10;46.60;;;;;;5052981;28;20056;-60
2021/12/27 06:47:38;;;;;;;1.60;1.13;;;17.10;46.40;;;;;;5052612;28;20029;-60
2021/12/27 06:50:05;;;;;;;1.63;1.02;;;17.20;46.40;;;;;;5053023;28;20096;-60
2021/12/27 06:52:31;;;;;;;1.70;1.20;;;17.20;46.40;;;;;;5052725;28;20037;-60
2021/12/27 06:54:58;;;;;;;1.92;1.10;;;17.20;46.20;;;;;;5052509;28;20037;-60
2021/12/27 06:57:24;;;;;;;1.67;1.20;;;17.30;46.20;;;;;;5035005;28;20419;-61
2021/12/27 06:59:49;;;;;;;1.55;1.30;;;17.30;46.20;;;;;;5052640;28;20013;-61
2021/12/27 07:02:15;;;;;;;1.00;0.90;;;17.30;46.10;;;;;;5052509;28;20032;-60
2021/12/27 07:04:41;;;;;;;1.23;1.10;;;17.30;46.00;;;;;;5052772;28;20104;-60
2021/12/27 07:07:07;;;;;;;1.27;1.17;;;17.30;46.00;;;;;;5052676;28;20099;-60
2021/12/27 07:09:33;;;;;;;0.80;0.80;;;17.40;46.00;;;;;;5052755;28;20440;-60
2021/12/27 07:11:59;;;;;;;1.38;1.10;;;17.40;46.10;;;;;;5052515;28;20025;-60
2021/12/27 07:14:26;;;;;;;1.55;0.95;;;17.40;45.90;;;;;;5053169;28;20019;-59
2021/12/27 07:16:53;;;;;;;1.08;0.98;;;17.40;45.90;;;;;;5034789;28;20423;-59
2021/12/27 07:19:19;;;;;;;2.22;1.20;;;17.50;45.80;;;;;;5053199;28;20014;-59
2021/12/27 07:21:46;;;;;;;1.05;0.90;;;17.40;45.80;;;;;;5052977;28;20017;-60
2021/12/27 07:24:12;;;;;;;2.25;1.00;;;17.50;45.80;;;;;;5052959;28;20014;-60
2021/12/27 07:26:40;;;;;;;1.00;0.90;;;17.50;45.90;;;;;;5052911;28;20100;-60
2021/12/27 07:29:05;;;;;;;0.80;0.80;;;17.50;45.80;;;;;;5052632;28;20074;-60
2021/12/27 07:31:31;;;;;;;1.10;1.00;;;17.50;45.80;;;;;;5034764;28;20037;-60
2021/12/27 07:34:00;;;;;;;1.27;1.17;;;17.50;45.80;;;;;;5052697;28;20018;-61
2021/12/27 07:36:27;;;;;;;1.17;1.00;;;17.50;45.80;;;;;;5035085;28;20048;-61
2021/12/27 07:38:53;;;;;;;1.10;1.00;;;17.60;45.80;;;;;;5052602;28;20018;-60
2021/12/27 07:41:20;;;;;;;1.10;1.00;;;17.50;45.70;;;;;;5052337;28;20021;-61
2021/12/27 07:43:46;;;;;;;1.00;1.00;;;17.60;45.60;;;;;;5056370;28;20025;-60
2021/12/27 07:46:12;;;;;;;1.15;1.05;;;17.60;45.70;;;;;;5056481;28;20036;-60
2021/12/27 07:48:38;;;;;;;0.80;0.80;;;17.60;45.60;;;;;;5056627;28;20052;-60
2021/12/27 07:51:04;;;;;;;1.27;1.17;;;17.60;45.60;;;;;;5056333;28;20504;-60
2021/12/27 07:53:30;;;;;;;1.65;1.10;;;17.60;45.60;;;;;;5056628;28;20028;-61
2021/12/27 07:55:56;;;;;;;1.10;1.00;;;17.70;45.60;;;;;;5056753;28;20383;-60
2021/12/27 07:58:22;;;;;;;1.05;0.95;;;17.60;45.60;;;;;;5056905;28;20025;-60
2021/12/27 08:00:52;;;;;;;1.23;0.93;;;17.60;45.60;;;;;;5056202;28;20522;-60
2021/12/27 08:03:18;;;;;;;1.35;1.10;;;17.60;45.60;;;;;;5056553;28;20021;-59
2021/12/27 08:05:46;;;;;;;1.35;1.02;;;17.60;45.50;;;;;;5038669;28;20438;-60
2021/12/27 08:08:13;;;;;;;1.02;1.00;;;17.70;45.60;;;;;;5056787;28;20024;-61
2021/12/27 08:10:39;;;;;;;1.10;0.90;;;17.70;45.60;;;;;;5056501;28;20028;-61
2021/12/27 08:13:05;;;;;;;1.05;0.82;;;17.70;45.60;;;;;;5056667;28;20017;-60
2021/12/27 08:15:31;;;;;;;1.05;0.93;;;17.70;46.10;;;;;;5057150;28;20017;-60
2021/12/27 08:17:58;;;;;;;1.17;1.08;;;17.70;45.60;;;;;;5056777;28;20021;-64
2021/12/27 08:20:25;;;;;;;1.10;1.00;;;17.70;45.50;;;;;;5057095;28;20013;-61
2021/12/27 08:22:51;;;;;;;1.35;1.00;;;17.70;45.60;;;;;;5057191;28;20071;-60
2021/12/27 08:25:20;;;;;;;1.15;0.77;;;17.70;45.60;;;;;;5057153;28;20021;-61
2021/12/27 08:27:46;;;;;;;1.20;0.82;;;17.70;45.60;;;;;;5055736;28;20009;-61
2021/12/27 08:30:12;;;;;;;0.80;0.80;;;17.80;45.50;;;;;;5055250;28;20013;-60
2021/12/27 08:32:40;;;;;;;1.48;1.10;;;17.70;45.50;;;;;;5055313;28;20029;-61
2021/12/27 08:35:07;;;;;;;1.35;0.90;;;17.80;45.60;;;;;;5055401;28;20012;-60
2021/12/27 08:37:34;;;;;;;1.10;1.00;;;17.80;45.50;;;;;;5055197;28;20045;-60
2021/12/27 08:40:00;;;;;;;1.02;0.90;;;17.80;45.60;;;;;;5037627;28;20455;-60
2021/12/27 08:42:26;;;;;;;1.20;1.10;;;17.80;45.50;;;;;;5055137;28;20024;-60
2021/12/27 08:44:52;;;;;;;1.83;1.08;;;17.80;45.50;;;;;;5037108;28;20360;-60
2021/12/27 08:47:18;;;;;;;1.25;1.10;;;17.80;45.50;;;;;;5037422;28;20036;-59
2021/12/27 08:49:45;;;;;;;1.10;0.90;;;17.80;45.50;;;;;;5037178;28;20025;-59
2021/12/27 08:52:10;;;;;;;1.02;0.80;;;17.80;45.50;;;;;;5055225;28;20033;-62
2021/12/27 08:54:37;;;;;;;1.08;0.98;;;17.80;45.50;;;;;;5053762;28;20492;-60
2021/12/27 08:57:05;;;;;;;1.15;1.05;;;17.80;45.50;;;;;;5055026;28;20021;-60
2021/12/27 08:59:31;;;;;;;1.17;1.02;;;17.80;45.40;;;;;;5055546;28;20025;-60
2021/12/27 09:01:58;;;;;;;1.40;1.08;;;17.80;45.40;;;;;;5037348;28;20017;-61
2021/12/27 09:04:23;;;;;;;2.35;0.80;;;17.80;45.50;;;;;;5055545;28;20013;-59
2021/12/27 09:06:50;;;;;;;1.15;0.98;;;17.90;45.50;;;;;;5054776;28;20467;-59
2021/12/27 09:09:16;;;;;;;0.90;0.80;;;17.90;45.50;;;;;;5055131;28;20025;-59
2021/12/27 09:11:43;;;;;;;1.20;0.85;;;17.90;45.50;;;;;;5055268;28;20074;-62
2021/12/27 09:14:09;;;;;;;1.13;1.02;;;17.90;45.50;;;;;;5036699;28;20074;-62
2021/12/27 09:16:34;;;;;;;1.40;1.23;;;17.90;45.50;;;;;;5054630;28;20013;-60
2021/12/27 09:19:00;;;;;;;1.23;0.93;;;17.90;45.40;;;;;;5036776;28;20033;-60
2021/12/27 09:21:26;;;;;;;1.15;1.05;;;17.90;45.50;;;;;;5055116;28;20068;-60
2021/12/27 09:23:52;;;;;;;1.35;1.00;;;17.90;45.50;;;;;;5055159;28;20024;-60
2021/12/27 09:26:19;;;;;;;1.20;1.08;;;17.90;45.50;;;;;;5054982;28;20032;-60
2021/12/27 09:28:45;;;;;;;1.00;0.82;;;17.90;45.50;;;;;;5054910;28;20024;-60
2021/12/27 09:31:10;;;;;;;1.10;0.90;;;17.90;45.40;;;;;;5037004;28;20456;-60
2021/12/27 09:33:36;;;;;;;1.08;0.88;;;17.90;45.40;;;;;;5055277;28;20040;-60
2021/12/27 09:36:03;;;;;;;1.10;1.00;;;17.90;45.40;;;;;;5055035;28;20381;-64
2021/12/27 09:38:28;;;;;;;0.70;0.70;;;17.90;45.40;;;;;;5055792;28;20096;-60
2021/12/27 09:40:55;;;;;;;1.02;0.90;;;17.90;45.40;;;;;;5037118;28;20387;-60
2021/12/27 09:43:21;;;;;;;0.82;0.77;;;18.00;45.50;;;;;;5037411;28;20044;-60
2021/12/27 09:45:47;;;;;;;0.90;0.80;;;18.00;45.40;;;;;;5037001;28;20017;-60
2021/12/27 09:48:13;;;;;;;1.05;0.95;;;18.00;45.50;;;;;;5054753;28;20017;-60
2021/12/27 09:50:46;;;;;;;0.90;0.80;;;18.00;45.40;;;;;;5054370;28;20017;-60
2021/12/27 09:53:12;;;;;;;1.00;0.90;;;18.00;45.40;;;;;;5054800;28;20090;-59
2021/12/27 09:55:38;;;;;;;1.42;1.00;;;18.00;45.40;;;;;;5054560;28;20573;-60
2021/12/27 09:58:05;;;;;;;0.85;0.85;;;18.00;45.40;;;;;;5053972;28;20019;-60
2021/12/27 10:00:31;;;;;;;0.70;0.70;;;18.00;45.50;;;;;;5054135;28;20017;-60
2021/12/27 10:02:57;;;;;;;0.75;0.70;;;18.00;45.40;;;;;;5036611;28;20035;-60
2021/12/27 10:05:25;;;;;;;0.70;0.70;;;18.00;45.40;;;;;;5053950;28;20044;-60
2021/12/27 10:07:50;;;;;;;0.90;0.80;;;18.00;45.40;;;;;;5053537;28;20140;-60
2021/12/27 10:10:16;;;;;;;1.30;1.00;;;18.00;45.40;;;;;;5053679;28;20043;-59
2021/12/27 10:12:42;;;;;;;0.70;0.70;;;18.10;45.40;;;;;;5053740;28;20032;-60
2021/12/27 10:15:21;;;;;;;0.80;0.80;;;18.00;45.40;;;;;;5053424;28;20391;-60
2021/12/27 10:17:47;;;;;;;0.93;0.73;;;18.00;45.40;;;;;;5053784;28;20010;-60
2021/12/27 10:20:21;;;;;;;0.98;0.82;;;18.00;45.40;;;;;;5053400;28;20017;-60
2021/12/27 10:22:56;;;;;;;1.25;0.98;;;18.10;45.50;;;;;;5053643;28;20120;-60
2021/12/27 10:25:27;;;;;;;1.05;0.90;;;18.00;45.40;;;;;;5053611;28;20025;-60
2021/12/27 10:27:54;;;;;;;;;;;18.00;45.40;;;;;;5053748;28;20498;-60
2021/12/27 10:30:22;;;;;;;1.67;1.10;;;18.00;45.40;;;;;;5053167;28;19905;-60
2021/12/27 10:33:23;;;;;;;0.73;0.73;;;18.00;45.50;;;;;;5053373;28;20104;-61
2021/12/27 10:35:49;;;;;;;1.15;0.88;;;18.00;45.50;;;;;;4972530;28;20043;-60
2021/12/27 10:38:23;;;;;;;1.48;0.90;;;18.10;45.50;;;;;;4956142;28;20532;-61
2021/12/27 10:41:10;;;;;;;1.00;0.90;;;18.00;45.40;;;;;;4972306;28;20022;-61
2021/12/27 10:43:41;;;;;;;0.82;0.80;;;18.00;45.50;;;;;;4972455;28;20027;-62
2021/12/27 10:46:11;;;;;;;1.27;1.00;;;18.10;45.50;;;;;;4972544;28;20027;-60
2021/12/27 10:48:42;;;;;;;0.63;0.63;;;18.10;45.50;;;;;;4972542;28;20026;-61
2021/12/27 10:51:09;;;;;;;0.80;0.80;;;18.10;45.50;;;;;;4972332;28;20034;-60
2021/12/27 10:54:01;;;;;;;1.00;0.85;;;18.10;45.50;;;;;;4972191;28;20026;-61
2021/12/27 10:56:28;;;;;;;1.20;0.80;;;18.10;45.50;;;;;;4969351;28;20042;-59
2021/12/27 10:58:59;;;;;;;0.82;0.80;;;18.10;45.50;;;;;;4955930;28;20031;-61
2021/12/27 11:01:26;;;;;;;0.80;0.80;;;18.10;45.60;;;;;;4971930;28;20544;-60
2021/12/27 11:03:54;;;;;;;1.02;0.80;;;18.10;45.50;;;;;;4971986;28;20053;-61
2021/12/27 11:06:24;;;;;;;2.38;0.90;;;18.10;45.50;;;;;;4972457;28;20035;-60
2021/12/27 11:08:51;;;;;;;1.05;0.85;;;18.10;45.50;;;;;;4972874;28;20027;-60
2021/12/27 11:11:18;;;;;;;1.67;0.70;;;18.10;45.50;;;;;;5011051;28;20044;-60
2021/12/27 11:13:47;;;;;;;0.80;0.80;;;18.10;45.50;;;;;;5053103;28;20017;-60
2021/12/27 11:16:13;;;;;;;1.17;0.77;;;18.10;45.50;;;;;;5053109;28;20009;-60
2021/12/27 11:18:39;;;;;;;1.83;0.90;;;18.10;45.50;;;;;;5057264;28;20439;-60
2021/12/27 11:21:13;;;;;;;0.95;0.88;;;18.10;45.50;;;;;;5057694;28;20021;-61
2021/12/27 11:23:41;;;;;;;1.27;0.90;;;18.10;45.50;;;;;;5057562;28;20485;-60
2021/12/27 11:26:12;;;;;;;2.35;0.75;;;18.20;45.60;;;;;;5058008;28;20025;-59
2021/12/27 11:28:42;;;;;;;1.02;0.75;;;18.10;45.50;;;;;;5058081;28;20051;-60
2021/12/27 11:31:23;;;;;;;0.77;0.77;;;18.10;45.50;;;;;;5057199;28;20025;-60
2021/12/27 11:33:56;;;;;;;1.17;0.98;;;18.10;45.60;;;;;;5057131;28;20017;-60
2021/12/27 11:36:24;;;;;;;1.00;0.80;;;18.10;45.60;;;;;;5056899;28;20041;-60
2021/12/27 11:38:51;;;;;;;1.38;0.80;;;18.10;45.60;;;;;;5056774;28;20025;-60
2021/12/27 11:41:33;;;;;;;1.08;0.80;;;18.10;45.60;;;;;;5056945;28;20048;-60
2021/12/27 11:43:58;;;;;;;1.10;0.73;;;18.10;45.60;;;;;;5057315;28;20039;-59
2021/12/27 11:46:30;;;;;;;0.82;0.70;;;18.10;45.60;;;;;;5057060;28;20357;-61
2021/12/27 11:48:58;;;;;;;1.38;0.82;;;18.10;45.70;;;;;;5057795;28;20022;-60
2021/12/27 11:51:33;;;;;;;1.15;1.00;;;18.10;45.70;;;;;;5056998;28;20028;-60
2021/12/27 11:53:59;;;;;;;1.15;0.93;;;18.10;45.70;;;;;;5056581;28;20014;-59
2021/12/27 11:56:38;;;;;;;1.30;0.90;;;18.10;45.70;;;;;;5056171;28;20021;-59
2021/12/27 11:59:22;;;;;;;0.65;0.60;;;18.10;45.70;;;;;;5056443;28;20021;-59
2021/12/27 12:01:55;;;;;;;0.93;0.70;;;18.10;45.70;;;;;;5056133;28;20471;-60
2021/12/27 12:04:40;;;;;;;1.00;0.90;;;18.10;45.70;;;;;;5056338;28;20013;-60
2021/12/27 12:07:07;;;;;;;1.30;0.90;;;18.10;45.70;;;;;;5056534;28;20055;-60
2021/12/27 12:09:42;;;;;;;0.80;0.73;;;18.10;45.70;;;;;;5056568;28;20025;-60
2021/12/27 12:12:11;;;;;;;1.17;0.82;;;18.10;45.80;;;;;;5039560;28;20483;-59
2021/12/27 12:14:36;;;;;;;1.08;0.80;;;18.10;45.80;;;;;;5055815;28;20502;-60
2021/12/27 12:17:04;;;;;;;0.70;0.70;;;18.10;45.90;;;;;;5055695;28;20009;-60
2021/12/27 12:19:41;;;;;;;1.05;0.85;;;18.00;45.90;;;;;;5055406;28;20025;-59
2021/12/27 12:22:28;;;;;;;0.88;0.73;;;18.00;45.90;;;;;;5055720;28;20050;-59
2021/12/27 12:25:22;;;;;;;1.10;0.90;;;18.00;46.00;;;;;;5055252;28;20049;-59
2021/12/27 12:28:08;;;;;;;1.08;0.90;;;18.00;46.00;;;;;;5055471;28;20017;-60
2021/12/27 12:30:47;;;;;;;1.35;0.98;;;18.00;46.10;;;;;;5037291;28;20803;-59
2021/12/27 12:33:15;;;;;;;0.73;0.70;;;17.90;46.10;;;;;;5037653;28;20009;-59
2021/12/27 12:35:42;;;;;;;1.05;0.70;;;17.90;46.30;;;;;;5055326;28;20096;-60
2021/12/27 12:38:19;;;;;;;1.00;0.80;;;17.90;46.30;;;;;;5055397;28;20098;-60
2021/12/27 12:40:57;;;;;;;0.90;0.80;;;17.90;46.30;;;;;;5054949;28;20024;-60
2021/12/27 12:43:35;;;;;;;2.05;0.80;;;17.90;46.40;;;;;;5055003;28;20114;-60
2021/12/27 12:46:24;;;;;;;1.05;0.75;;;17.80;46.40;;;;;;5055016;28;20138;-60
2021/12/27 12:49:04;;;;;;;0.75;0.70;;;17.80;46.50;;;;;;5055270;28;20123;-60
2021/12/27 12:51:32;;;;;;;1.10;0.90;;;17.80;46.50;;;;;;5055015;28;20024;-60